createdAt,value
2018-06-15T00:02:19.761Z,29.60
2018-06-15T00:04:47.772Z,28.77
2018-06-15T00:07:15.873Z,28.60
2018-06-15T00:09:43.848Z,28.63
2018-06-15T00:12:11.860Z,29.17
2018-06-15T00:14:39.866Z,29.83
2018-06-15T00:17:07.892Z,30.90
2018-06-15T00:19:35.901Z,30.90
2018-06-15T00:22:04.004Z,30.20
2018-06-15T00:24:32.021Z,31.33
2018-06-15T00:27:00.032Z,30.03
2018-06-15T00:29:28.118Z,32.37
2018-06-15T00:31:56.089Z,29.70
2018-06-15T00:34:24.108Z,30.40
2018-06-15T00:36:52.110Z,31.00
2018-06-15T00:39:20.137Z,31.50
2018-06-15T00:41:48.148Z,30.00
2018-06-15T00:44:16.172Z,30.77
2018-06-15T00:46:44.161Z,32.80
2018-06-15T00:49:12.181Z,32.30
2018-06-15T00:51:40.197Z,32.40
2018-06-15T00:54:08.205Z,33.23
2018-06-15T00:56:46.466Z,31.93
2018-06-15T00:59:14.644Z,32.23
2018-06-15T01:01:42.820Z,32.77
2018-06-15T01:04:10.839Z,31.93
2018-06-15T01:06:38.833Z,31.70
2018-06-15T01:09:07.920Z,31.63
2018-06-15T01:11:36.240Z,32.47
2018-06-15T01:14:04.315Z,30.63
2018-06-15T01:16:32.345Z,32.77
2018-06-15T01:19:00.620Z,32.23
2018-06-15T01:21:28.640Z,33.57
2018-06-15T01:23:56.645Z,31.37
2018-06-15T01:26:24.666Z,31.90
2018-06-15T01:28:52.668Z,33.10
2018-06-15T01:31:20.676Z,35.93
2018-06-15T01:33:48.696Z,32.97
2018-06-15T01:36:16.701Z,33.87
2018-06-15T01:38:44.709Z,33.50
2018-06-15T01:41:12.721Z,32.33
2018-06-15T01:43:40.846Z,31.30
2018-06-15T01:46:08.844Z,32.67
2018-06-15T01:48:36.855Z,36.70
2018-06-15T01:51:04.897Z,32.60
2018-06-15T01:53:32.917Z,32.30
2018-06-15T01:56:00.932Z,35.03
2018-06-15T01:58:28.917Z,36.10
2018-06-15T02:00:56.914Z,33.37
2018-06-15T02:03:24.888Z,32.73
2018-06-15T02:05:53.049Z,31.30
2018-06-15T02:08:21.084Z,31.97
2018-06-15T02:10:49.108Z,33.83
2018-06-15T02:13:17.184Z,33.77
2018-06-15T02:15:45.217Z,32.23
2018-06-15T02:18:13.208Z,31.83
2018-06-15T02:20:41.216Z,33.63
2018-06-15T02:23:09.213Z,35.50
2018-06-15T02:25:37.285Z,34.60
2018-06-15T02:28:05.334Z,35.90
2018-06-15T02:30:33.308Z,36.43
2018-06-15T02:33:01.319Z,34.60
2018-06-15T02:35:29.308Z,35.63
2018-06-15T02:40:36.816Z,36.67
2018-06-15T02:43:04.845Z,35.83
2018-06-15T02:45:32.926Z,35.00
2018-06-15T02:48:00.932Z,37.80
2018-06-15T02:50:29.113Z,36.07
2018-06-15T02:52:57.137Z,36.40
2018-06-15T02:55:25.161Z,37.30
2018-06-15T02:57:53.294Z,37.00
2018-06-15T03:00:21.303Z,39.50
2018-06-15T03:02:49.318Z,38.77
2018-06-15T03:05:17.354Z,37.27
2018-06-15T03:07:45.416Z,37.60
2018-06-15T03:10:13.393Z,38.17
2018-06-15T03:12:41.428Z,38.80
2018-06-15T03:15:09.440Z,37.60
2018-06-15T03:17:37.468Z,36.20
2018-06-15T03:20:05.524Z,36.60
2018-06-15T03:22:33.572Z,39.30
2018-06-15T03:25:01.593Z,36.70
2018-06-15T03:27:29.685Z,35.90
2018-06-15T03:29:57.668Z,36.37
2018-06-15T03:32:25.648Z,35.30
2018-06-15T03:34:53.708Z,37.27
2018-06-15T03:37:21.844Z,37.30
2018-06-15T03:39:49.851Z,38.40
2018-06-15T03:42:17.880Z,36.30
2018-06-15T03:44:45.896Z,37.67
2018-06-15T03:47:13.917Z,37.83
2018-06-15T03:49:41.958Z,38.20
2018-06-15T03:52:09.974Z,36.80
2018-06-15T03:54:38.015Z,38.23
2018-06-15T03:57:06.050Z,37.30
2018-06-15T03:59:34.051Z,37.87
2018-06-15T04:02:02.057Z,35.97
2018-06-15T04:04:30.055Z,36.60
2018-06-15T04:06:58.053Z,37.60
2018-06-15T04:09:26.092Z,35.97
2018-06-15T04:11:54.165Z,38.77
2018-06-15T04:14:22.189Z,37.37
2018-06-15T04:16:50.200Z,35.93
2018-06-15T04:19:18.225Z,37.30
2018-06-15T04:21:46.278Z,37.67
2018-06-15T04:24:14.329Z,37.27
2018-06-15T04:26:42.488Z,39.47
2018-06-15T04:29:10.501Z,39.47
2018-06-15T04:31:38.476Z,36.03
2018-06-15T04:34:06.521Z,35.80
2018-06-15T04:36:34.521Z,37.17
2018-06-15T04:39:02.520Z,37.80
2018-06-15T04:41:30.552Z,36.43
2018-06-15T04:43:58.568Z,36.70
2018-06-15T04:46:26.581Z,38.27
2018-06-15T04:48:54.592Z,36.50
2018-06-15T04:51:22.588Z,34.83
2018-06-15T04:53:50.588Z,35.40
2018-06-15T04:56:18.791Z,35.40
2018-06-15T04:58:46.753Z,34.40
2018-06-15T05:01:14.773Z,34.37
2018-06-15T05:03:42.789Z,35.47
2018-06-15T05:06:10.787Z,35.43
2018-06-15T05:08:38.872Z,34.90
2018-06-15T05:11:06.920Z,36.13
2018-06-15T05:13:34.988Z,35.53
2018-06-15T05:16:03.000Z,32.80
2018-06-15T05:18:31.010Z,31.77
2018-06-15T05:20:58.996Z,31.77
2018-06-15T05:23:27.257Z,31.67
2018-06-15T05:25:55.249Z,30.60
2018-06-15T05:28:23.321Z,30.40
2018-06-15T05:30:51.322Z,26.57
2018-06-15T05:33:19.324Z,28.70
2018-06-15T05:35:47.309Z,28.33
2018-06-15T05:38:15.306Z,25.23
2018-06-15T05:40:43.294Z,24.83
2018-06-15T05:43:11.281Z,24.13
2018-06-15T05:45:39.277Z,23.77
2018-06-15T05:48:07.341Z,22.97
2018-06-15T05:50:35.362Z,21.77
2018-06-15T05:53:03.358Z,25.47
2018-06-15T05:55:31.381Z,24.50
2018-06-15T05:57:59.420Z,26.93
2018-06-15T06:00:27.433Z,23.40
2018-06-15T06:02:55.658Z,22.17
2018-06-15T06:05:23.694Z,22.30
2018-06-15T06:07:51.737Z,23.00
2018-06-15T06:10:19.808Z,23.67
2018-06-15T06:12:47.821Z,21.40
2018-06-15T06:15:15.825Z,20.30
2018-06-15T06:17:43.848Z,20.70
2018-06-15T06:20:11.876Z,21.67
2018-06-15T06:22:39.881Z,20.53
2018-06-15T06:25:07.996Z,19.83
2018-06-15T06:27:36.003Z,20.67
2018-06-15T06:30:04.766Z,19.98
2018-06-15T06:32:32.847Z,20.60
2018-06-15T06:35:00.866Z,20.90
2018-06-15T06:37:28.877Z,20.40
2018-06-15T06:39:56.876Z,21.03
2018-06-15T06:42:24.883Z,18.80
2018-06-15T06:44:52.869Z,19.47
2018-06-15T06:47:20.882Z,19.70
2018-06-15T06:49:48.876Z,18.97
2018-06-15T06:52:16.885Z,18.80
2018-06-15T06:54:44.926Z,18.60
2018-06-15T06:57:12.920Z,16.90
2018-06-15T06:59:40.916Z,16.17
2018-06-15T07:02:08.904Z,16.77
2018-06-15T07:04:36.936Z,15.90
2018-06-15T07:07:04.973Z,18.53
2018-06-15T07:09:33.139Z,17.07
2018-06-15T07:12:01.161Z,17.40
2018-06-15T07:14:29.349Z,18.07
2018-06-15T07:16:57.440Z,17.70
2018-06-15T07:19:25.617Z,18.37
2018-06-15T07:21:53.653Z,17.07
2018-06-15T07:24:21.676Z,17.60
2018-06-15T07:26:49.714Z,15.97
2018-06-15T07:29:17.851Z,16.40
2018-06-15T07:31:46.105Z,16.37
2018-06-15T07:34:14.112Z,16.53
2018-06-15T07:36:42.158Z,15.73
2018-06-15T07:39:11.393Z,13.90
2018-06-15T07:41:39.400Z,14.63
2018-06-15T07:44:07.516Z,13.03
2018-06-15T07:46:35.701Z,11.80
2018-06-15T07:49:03.694Z,10.93
2018-06-15T07:51:31.714Z,12.20
2018-06-15T07:53:59.770Z,11.57
2018-06-15T07:56:27.801Z,12.30
2018-06-15T07:58:55.844Z,12.50
2018-06-15T08:01:23.868Z,13.33
2018-06-15T08:04:02.266Z,12.63
2018-06-15T08:06:30.256Z,12.57
2018-06-15T08:08:58.677Z,10.87
2018-06-15T08:11:26.747Z,10.83
2018-06-15T08:13:54.776Z,11.00
2018-06-15T08:16:22.795Z,12.27
2018-06-15T08:18:50.800Z,10.73
2018-06-15T08:21:18.821Z,10.30
2018-06-15T08:23:47.004Z,9.43
2018-06-15T08:26:15.052Z,11.90
2018-06-15T08:28:43.096Z,12.33
2018-06-15T08:31:11.101Z,12.13
2018-06-15T08:33:39.131Z,11.27
2018-06-15T08:36:07.154Z,10.87
2018-06-15T08:38:35.205Z,8.73
2018-06-15T08:41:03.252Z,7.20
2018-06-15T08:43:31.273Z,6.60
2018-06-15T08:45:59.250Z,5.10
2018-06-15T08:48:27.508Z,5.40
2018-06-15T08:50:55.528Z,4.70
2018-06-15T08:53:23.556Z,5.40
2018-06-15T08:55:51.565Z,5.20
2018-06-15T08:58:19.604Z,6.30
2018-06-15T09:00:48.085Z,6.83
2018-06-15T09:03:16.445Z,6.23
2018-06-15T09:05:44.385Z,6.30
2018-06-15T09:08:12.509Z,5.87
2018-06-15T09:10:40.527Z,5.00
2018-06-15T09:13:08.532Z,5.80
2018-06-15T09:15:36.539Z,5.90
2018-06-15T09:18:04.614Z,4.80
2018-06-15T09:20:32.606Z,5.70
2018-06-15T09:23:00.736Z,6.90
2018-06-15T09:25:28.725Z,6.90
2018-06-15T09:27:56.713Z,5.33
2018-06-15T09:30:24.697Z,5.90
2018-06-15T09:32:52.752Z,6.00
2018-06-15T09:35:20.764Z,5.10
2018-06-15T09:37:48.773Z,5.83
2018-06-15T09:40:16.784Z,6.17
2018-06-15T09:42:44.795Z,5.87
2018-06-15T09:45:12.853Z,4.70
2018-06-15T09:47:41.170Z,5.20
2018-06-15T09:50:09.192Z,4.30
2018-06-15T09:52:37.208Z,5.47
2018-06-15T09:55:05.255Z,4.83
2018-06-15T09:57:33.313Z,5.30
2018-06-15T10:00:01.325Z,4.60
2018-06-15T10:02:29.316Z,5.27
2018-06-15T10:04:57.341Z,5.00
2018-06-15T10:07:25.332Z,5.13
2018-06-15T10:09:53.352Z,4.20
2018-06-15T10:12:21.345Z,5.60
2018-06-15T10:14:49.428Z,4.40
2018-06-15T10:17:17.434Z,3.70
2018-06-15T10:19:45.462Z,3.83
2018-06-15T10:22:13.472Z,4.23
2018-06-15T10:24:41.485Z,4.13
2018-06-15T10:27:09.530Z,5.10
2018-06-15T10:29:37.684Z,5.00
2018-06-15T10:32:05.857Z,5.40
2018-06-15T10:34:33.864Z,5.00
2018-06-15T10:37:01.849Z,4.93
2018-06-15T10:39:29.928Z,4.60
2018-06-15T10:41:57.865Z,4.40
2018-06-15T10:44:25.857Z,5.57
2018-06-15T10:46:53.856Z,5.40
2018-06-15T10:49:21.840Z,5.77
2018-06-15T10:51:49.844Z,6.27
2018-06-15T10:54:17.865Z,5.23
2018-06-15T10:56:45.853Z,5.77
2018-06-15T10:59:13.857Z,5.20
2018-06-15T11:01:41.830Z,4.20
2018-06-15T11:04:09.962Z,4.23
2018-06-15T11:06:37.942Z,4.30
2018-06-15T11:09:07.654Z,4.40
2018-06-15T11:11:35.696Z,4.00
2018-06-15T11:14:03.868Z,3.50
2018-06-15T11:16:31.940Z,2.97
2018-06-15T11:18:59.970Z,4.43
2018-06-15T11:21:28.017Z,4.10
2018-06-15T11:23:56.024Z,3.90
2018-06-15T11:26:24.029Z,4.23
2018-06-15T11:28:52.036Z,3.23
2018-06-15T11:31:20.031Z,3.40
2018-06-15T11:33:48.050Z,3.67
2018-06-15T11:36:16.113Z,3.13
2018-06-15T11:38:44.144Z,3.00
2018-06-15T11:41:12.300Z,4.30
2018-06-15T11:43:40.362Z,3.10
2018-06-15T11:46:08.357Z,3.40
2018-06-15T11:48:36.366Z,2.83
2018-06-15T11:51:04.397Z,3.80
2018-06-15T11:53:32.473Z,3.03
2018-06-15T11:56:00.481Z,4.27
2018-06-15T11:58:28.517Z,2.97
2018-06-15T12:00:56.517Z,3.03
2018-06-15T12:03:24.593Z,2.80
2018-06-15T12:05:52.688Z,3.00
2018-06-15T12:08:20.719Z,3.30
2018-06-15T12:10:49.347Z,3.10
2018-06-15T12:13:17.549Z,2.17
2018-06-15T12:15:45.593Z,2.80
2018-06-15T12:18:13.592Z,3.40
2018-06-15T12:20:41.614Z,2.50
2018-06-15T12:23:09.714Z,2.40
2018-06-15T12:25:38.286Z,2.40
2018-06-15T12:28:06.352Z,3.00
2018-06-15T12:30:34.354Z,2.55
2018-06-15T12:33:02.964Z,2.93
2018-06-15T12:35:30.993Z,2.57
2018-06-15T12:37:59.146Z,2.37
2018-06-15T12:40:27.140Z,3.10
2018-06-15T12:42:55.157Z,2.80
2018-06-15T12:45:23.226Z,2.17
2018-06-15T12:47:51.217Z,2.70
2018-06-15T12:50:19.507Z,2.40
2018-06-15T12:52:47.492Z,2.53
2018-06-15T12:55:15.488Z,2.37
2018-06-15T12:57:43.484Z,3.00
2018-06-15T13:00:11.520Z,2.93
2018-06-15T13:02:39.546Z,2.80
2018-06-15T13:05:07.646Z,2.43
2018-06-15T13:07:35.682Z,3.23
2018-06-15T13:10:03.861Z,2.10
2018-06-15T13:12:31.842Z,2.40
2018-06-15T13:14:59.854Z,2.93
2018-06-15T13:17:27.886Z,2.67
2018-06-15T13:19:56.187Z,2.37
2018-06-15T13:22:24.176Z,3.20
2018-06-15T13:24:52.500Z,2.70
2018-06-15T13:27:20.545Z,2.40
2018-06-15T13:29:48.545Z,2.50
2018-06-15T13:32:16.618Z,2.47
2018-06-15T13:34:44.633Z,2.37
2018-06-15T13:37:12.730Z,2.50
2018-06-15T13:39:40.919Z,2.50
2018-06-15T13:42:08.904Z,2.90
2018-06-15T13:44:36.908Z,3.00
2018-06-15T13:47:05.012Z,2.93
2018-06-15T13:49:33.042Z,2.80
2018-06-15T13:52:01.061Z,2.57
2018-06-15T13:54:29.064Z,3.57
2018-06-15T13:56:57.100Z,2.10
2018-06-15T13:59:25.247Z,2.13
2018-06-15T14:01:53.234Z,2.27
2018-06-15T14:04:21.208Z,2.40
2018-06-15T14:06:49.289Z,2.60
2018-06-15T14:09:17.269Z,2.03
2018-06-15T14:11:46.252Z,2.53
2018-06-15T14:14:14.253Z,2.77
2018-06-15T14:16:42.657Z,2.73
2018-06-15T14:19:10.629Z,2.87
2018-06-15T14:21:38.689Z,3.13
2018-06-15T14:24:07.206Z,2.13
2018-06-15T14:26:35.224Z,2.30
2018-06-15T14:29:03.246Z,2.47
2018-06-15T14:31:31.490Z,2.80
2018-06-15T14:33:59.539Z,2.60
2018-06-15T14:36:27.748Z,2.90
2018-06-15T14:38:55.761Z,2.50
2018-06-15T14:41:23.791Z,2.23
2018-06-15T14:43:51.768Z,3.07
2018-06-15T14:46:19.862Z,2.77
2018-06-15T14:48:47.866Z,3.00
2018-06-15T14:51:15.869Z,2.50
2018-06-15T14:53:43.888Z,3.30
2018-06-15T14:56:11.916Z,2.70
2018-06-15T14:58:39.929Z,2.83
2018-06-15T15:01:08.017Z,2.67
2018-06-15T15:03:36.057Z,2.50
2018-06-15T15:06:04.292Z,3.63
2018-06-15T15:08:32.300Z,2.37
2018-06-15T15:11:00.304Z,1.97
2018-06-15T15:13:28.315Z,2.87
2018-06-15T15:15:56.430Z,2.77
2018-06-15T15:18:24.492Z,2.53
2018-06-15T15:20:52.540Z,3.63
2018-06-15T15:23:20.562Z,3.33
2018-06-15T15:25:48.572Z,2.70
2018-06-15T15:28:16.761Z,2.50
2018-06-15T15:30:44.760Z,3.20
2018-06-15T15:33:12.765Z,2.83
2018-06-15T15:35:40.789Z,2.97
2018-06-15T15:38:08.816Z,2.60
2018-06-15T15:40:36.927Z,3.00
2018-06-15T15:43:05.049Z,3.27
2018-06-15T15:45:33.044Z,2.50
2018-06-15T15:48:01.032Z,3.50
2018-06-15T15:50:29.079Z,3.03
2018-06-15T15:52:57.044Z,2.17
2018-06-15T15:55:25.015Z,2.17
2018-06-15T15:57:53.112Z,3.23
2018-06-15T16:00:21.065Z,2.30
2018-06-15T16:02:49.200Z,2.60
2018-06-15T16:05:17.232Z,2.60
2018-06-15T16:07:45.232Z,2.70
2018-06-15T16:10:13.217Z,2.23
2018-06-15T16:12:41.211Z,3.10
2018-06-15T16:15:09.420Z,3.63
2018-06-15T16:17:37.549Z,2.43
2018-06-15T16:20:05.597Z,3.37
2018-06-15T16:22:33.616Z,2.33
2018-06-15T16:25:01.635Z,3.40
2018-06-15T16:27:29.661Z,2.70
2018-06-15T16:29:57.828Z,2.50
2018-06-15T16:32:25.981Z,3.03
2018-06-15T16:34:54.028Z,3.03
2018-06-15T16:37:22.031Z,3.00
2018-06-15T16:39:50.032Z,3.30
2018-06-15T16:42:18.227Z,2.83
2018-06-15T16:44:46.921Z,3.00
2018-06-15T16:47:15.160Z,3.07
2018-06-15T16:49:43.369Z,2.90
2018-06-15T16:52:11.368Z,2.60
2018-06-15T16:54:39.582Z,3.43
2018-06-15T16:57:07.680Z,3.53
2018-06-15T16:59:39.332Z,2.80
2018-06-15T17:02:07.793Z,3.40
2018-06-15T17:04:35.810Z,3.17
2018-06-15T17:07:03.838Z,3.57
2018-06-15T17:09:32.952Z,2.90
2018-06-15T17:12:01.029Z,3.13
2018-06-15T17:14:29.093Z,3.17
2018-06-15T17:16:57.095Z,3.10
2018-06-15T17:19:25.190Z,4.20
2018-06-15T17:21:53.160Z,3.20
2018-06-15T17:24:21.149Z,3.70
2018-06-15T17:26:49.182Z,3.30
2018-06-15T17:29:17.204Z,2.73
2018-06-15T17:31:45.264Z,3.20
2018-06-15T17:34:13.246Z,2.50
2018-06-15T17:36:44.705Z,3.57
2018-06-15T17:39:13.500Z,3.33
2018-06-15T17:41:42.500Z,3.50
2018-06-15T17:44:10.597Z,3.17
2018-06-15T17:46:38.640Z,3.17
2018-06-15T17:49:07.104Z,3.30
2018-06-15T17:51:35.125Z,4.70
2018-06-15T17:54:03.125Z,3.20
2018-06-15T17:56:31.117Z,3.33
2018-06-15T17:58:59.172Z,3.50
2018-06-15T18:01:27.180Z,3.33
2018-06-15T18:03:55.230Z,2.90
2018-06-15T18:06:23.217Z,3.33
2018-06-15T18:08:51.520Z,3.27
2018-06-15T18:11:19.549Z,3.33
2018-06-15T18:13:47.584Z,3.13
2018-06-15T18:16:15.792Z,3.47
2018-06-15T18:18:43.829Z,3.90
2018-06-15T18:21:11.876Z,4.77
2018-06-15T18:23:39.938Z,3.60
2018-06-15T18:26:07.952Z,3.80
2018-06-15T18:28:35.978Z,3.13
2018-06-15T18:31:04.238Z,3.00
2018-06-15T18:33:32.324Z,2.20
2018-06-15T18:36:00.464Z,3.30
2018-06-15T18:38:29.269Z,3.73
2018-06-15T18:40:57.289Z,3.17
2018-06-15T18:43:25.652Z,2.97
2018-06-15T18:45:53.757Z,2.93
2018-06-15T18:48:21.777Z,3.40
2018-06-15T18:50:49.832Z,3.67
2018-06-15T18:53:17.893Z,3.97
2018-06-15T18:55:45.924Z,3.23
2018-06-15T18:58:13.954Z,3.40
2018-06-15T19:00:42.005Z,3.47
2018-06-15T19:03:09.984Z,3.40
2018-06-15T19:05:38.024Z,3.00
2018-06-15T19:08:06.025Z,2.97
2018-06-15T19:10:34.054Z,3.80
2018-06-15T19:13:02.062Z,3.03
2018-06-15T19:15:30.056Z,4.40
2018-06-15T19:17:58.050Z,3.27
2018-06-15T19:20:26.056Z,2.67
2018-06-15T19:22:54.084Z,2.80
2018-06-15T19:25:22.120Z,2.93
2018-06-15T19:27:50.100Z,3.60
2018-06-15T19:30:18.100Z,2.93
2018-06-15T19:32:46.230Z,3.70
2018-06-15T19:35:14.281Z,3.53
2018-06-15T19:37:42.307Z,3.10
2018-06-15T19:40:10.317Z,3.47
2018-06-15T19:42:38.348Z,3.10
2018-06-15T19:45:06.461Z,2.80
2018-06-15T19:47:34.420Z,3.03
2018-06-15T19:50:02.413Z,3.33
2018-06-15T19:52:30.408Z,3.20
2018-06-15T19:54:58.656Z,3.00
2018-06-15T19:57:26.705Z,2.83
2018-06-15T19:59:54.766Z,3.20
2018-06-15T20:02:22.801Z,2.90
2018-06-15T20:04:50.879Z,3.63
2018-06-15T20:07:18.876Z,3.40
2018-06-15T20:09:46.985Z,3.10
2018-06-15T20:12:16.001Z,3.43
2018-06-15T20:14:43.985Z,3.33
2018-06-15T20:17:12.013Z,3.23
2018-06-15T20:19:40.053Z,3.43
2018-06-15T20:22:08.037Z,3.50
2018-06-15T20:24:36.036Z,3.00
2018-06-15T20:27:04.029Z,2.63
2018-06-15T20:29:32.132Z,3.03
2018-06-15T20:32:00.544Z,3.43
2018-06-15T20:34:28.520Z,3.60
2018-06-15T20:36:56.516Z,2.90
2018-06-15T20:39:24.536Z,2.50
2018-06-15T20:41:52.641Z,3.30
2018-06-15T20:44:20.604Z,2.77
2018-06-15T20:46:48.653Z,2.77
2018-06-15T20:49:16.650Z,2.60
2018-06-15T20:51:44.668Z,3.33
2018-06-15T20:54:12.686Z,2.33
2018-06-15T20:56:40.664Z,2.60
2018-06-15T20:59:08.658Z,2.67
2018-06-15T21:01:36.760Z,2.57
2018-06-15T21:04:04.934Z,3.00
2018-06-15T21:06:32.917Z,3.20
2018-06-15T21:09:00.937Z,3.10
2018-06-15T21:11:28.981Z,2.53
2018-06-15T21:13:57.002Z,3.33
2018-06-15T21:16:25.277Z,2.60
2018-06-15T21:18:53.284Z,2.70
2018-06-15T21:21:21.283Z,3.10
2018-06-15T21:23:49.352Z,2.50
2018-06-15T21:26:17.337Z,3.50
2018-06-15T21:28:45.402Z,3.00
2018-06-15T21:31:13.380Z,3.73
2018-06-15T21:33:41.414Z,3.93
2018-06-15T21:36:09.604Z,3.10
2018-06-15T21:38:37.721Z,2.80
2018-06-15T21:41:05.720Z,2.87
2018-06-15T21:43:33.714Z,2.80
2018-06-15T21:46:01.745Z,3.20
2018-06-15T21:48:29.764Z,3.90
2018-06-15T21:50:57.806Z,4.33
2018-06-15T21:53:25.887Z,3.53
2018-06-15T21:55:53.890Z,3.50
2018-06-15T21:58:21.936Z,2.23
2018-06-15T22:00:49.926Z,3.17
2018-06-15T22:03:17.937Z,3.13
2018-06-15T22:05:45.972Z,2.83
2018-06-15T22:08:13.976Z,2.83
2018-06-15T22:10:42.369Z,3.37
2018-06-15T22:13:11.358Z,3.40
2018-06-15T22:15:39.352Z,2.83
2018-06-15T22:18:07.360Z,2.87
2018-06-15T22:20:35.397Z,2.97
2018-06-15T22:23:03.534Z,2.40
2018-06-15T22:25:31.548Z,2.77
2018-06-15T22:27:59.673Z,2.47
2018-06-15T22:30:27.690Z,2.80
2018-06-15T22:32:55.876Z,2.87
2018-06-15T22:35:23.889Z,2.00
2018-06-15T22:37:52.037Z,2.70
2018-06-15T22:40:20.093Z,3.23
2018-06-15T22:42:48.100Z,3.00
2018-06-15T22:45:16.104Z,2.60
2018-06-15T22:47:44.130Z,2.70
2018-06-15T22:50:12.135Z,2.47
2018-06-15T22:52:40.100Z,3.13
2018-06-15T22:55:08.093Z,2.57
2018-06-15T22:57:36.215Z,3.30
2018-06-15T23:00:05.024Z,2.60
2018-06-15T23:02:33.236Z,3.23
2018-06-15T23:05:01.273Z,2.90
2018-06-15T23:07:29.248Z,2.90
2018-06-15T23:09:57.332Z,2.70
2018-06-15T23:12:25.355Z,2.90
2018-06-15T23:14:53.438Z,2.77
2018-06-15T23:17:21.442Z,2.70
2018-06-15T23:19:49.449Z,3.00
2018-06-15T23:22:17.482Z,3.37
2018-06-15T23:24:45.454Z,2.70
2018-06-15T23:27:13.464Z,3.20
2018-06-15T23:29:41.481Z,2.67
2018-06-15T23:32:09.502Z,3.40
2018-06-15T23:34:37.704Z,2.80
2018-06-15T23:37:05.725Z,2.63
2018-06-15T23:39:33.716Z,3.40
2018-06-15T23:42:01.732Z,3.20
2018-06-15T23:44:29.763Z,2.27
2018-06-15T23:46:57.769Z,3.30
2018-06-15T23:49:25.846Z,3.43
2018-06-15T23:51:53.833Z,2.70
2018-06-15T23:54:21.824Z,3.30
2018-06-15T23:56:49.793Z,3.00
2018-06-15T23:59:17.808Z,3.23
